createdAt,value
2023-05-13T00:00:10.017Z,20.99
2023-05-13T00:01:10.042Z,21.01
2023-05-13T00:02:10.048Z,21.01
2023-05-13T00:03:10.144Z,20.99
2023-05-13T00:04:10.102Z,20.98
2023-05-13T00:05:10.108Z,20.99
2023-05-13T00:06:10.124Z,21.01
2023-05-13T00:07:10.133Z,20.99
2023-05-13T00:08:10.194Z,20.99
2023-05-13T00:09:10.205Z,21.01
2023-05-13T00:10:10.235Z,20.99
2023-05-13T00:11:10.239Z,20.97
2023-05-13T00:12:10.268Z,20.99
2023-05-13T00:13:10.292Z,20.94
2023-05-13T00:14:10.304Z,20.97
2023-05-13T00:15:10.325Z,20.97
2023-05-13T00:16:10.363Z,20.92
2023-05-13T00:17:10.360Z,20.95
2023-05-13T00:18:10.406Z,20.98
2023-05-13T00:19:10.532Z,20.98
2023-05-13T00:20:10.406Z,20.98
2023-05-13T00:21:10.451Z,20.95
2023-05-13T00:22:10.483Z,20.95
2023-05-13T00:23:10.628Z,20.94
2023-05-13T00:24:10.513Z,20.92
2023-05-13T00:25:10.554Z,20.95
2023-05-13T00:26:10.563Z,20.94
2023-05-13T00:27:10.583Z,20.92
2023-05-13T00:28:10.600Z,20.91
2023-05-13T00:29:10.610Z,20.91
2023-05-13T00:30:10.633Z,20.92
2023-05-13T00:31:10.685Z,20.92
2023-05-13T00:32:10.679Z,20.91
2023-05-13T00:33:10.711Z,20.94
2023-05-13T00:34:11.614Z,20.88
2023-05-13T00:35:10.761Z,20.90
2023-05-13T00:36:10.766Z,20.94
2023-05-13T00:37:10.793Z,20.90
2023-05-13T00:38:10.835Z,20.91
2023-05-13T00:39:10.821Z,20.92
2023-05-13T00:40:10.840Z,20.92
2023-05-13T00:41:10.847Z,20.91
2023-05-13T00:42:10.863Z,20.92
2023-05-13T00:43:10.867Z,20.94
2023-05-13T00:44:12.265Z,20.91
2023-05-13T00:45:10.889Z,20.91
2023-05-13T00:46:10.944Z,20.94
2023-05-13T00:47:10.869Z,20.92
2023-05-13T00:48:10.875Z,20.90
2023-05-13T00:49:10.876Z,20.87
2023-05-13T00:50:10.833Z,20.88
2023-05-13T00:51:10.823Z,20.90
2023-05-13T00:52:10.845Z,20.91
2023-05-13T00:53:10.839Z,20.85
2023-05-13T00:54:10.814Z,20.90
2023-05-13T00:55:10.802Z,20.88
2023-05-13T00:56:10.780Z,20.88
2023-05-13T00:57:10.777Z,20.91
2023-05-13T00:58:10.773Z,20.88
2023-05-13T00:59:10.795Z,20.90
2023-05-13T01:00:10.787Z,20.90
2023-05-13T01:01:10.825Z,20.91
2023-05-13T01:02:10.860Z,20.87
2023-05-13T01:03:10.820Z,20.88
2023-05-13T01:04:10.757Z,20.87
2023-05-13T01:05:10.724Z,20.90
2023-05-13T01:06:10.707Z,20.87
2023-05-13T01:07:10.740Z,20.90
2023-05-13T01:08:10.690Z,20.88
2023-05-13T01:09:10.720Z,20.91
2023-05-13T01:10:10.702Z,20.90
2023-05-13T01:11:10.695Z,20.85
2023-05-13T01:12:10.679Z,20.85
2023-05-13T01:13:10.681Z,20.87
2023-05-13T01:14:10.724Z,20.85
2023-05-13T01:15:10.675Z,20.83
2023-05-13T01:16:10.669Z,20.87
2023-05-13T01:17:10.642Z,20.87
2023-05-13T01:18:10.662Z,20.85
2023-05-13T01:19:10.726Z,20.85
2023-05-13T01:20:10.630Z,20.87
2023-05-13T01:21:10.598Z,20.85
2023-05-13T01:22:10.578Z,20.84
2023-05-13T01:23:10.622Z,20.87
2023-05-13T01:24:10.628Z,20.87
2023-05-13T01:25:10.590Z,20.85
2023-05-13T01:26:10.609Z,20.81
2023-05-13T01:27:10.565Z,20.83
2023-05-13T01:28:10.581Z,20.87
2023-05-13T01:29:10.534Z,20.84
2023-05-13T01:30:10.565Z,20.85
2023-05-13T01:31:10.573Z,20.85
2023-05-13T01:32:10.520Z,20.84
2023-05-13T01:33:10.546Z,20.85
2023-05-13T01:34:10.561Z,20.85
2023-05-13T01:35:10.513Z,20.84
2023-05-13T01:36:10.526Z,20.84
2023-05-13T01:37:10.478Z,20.81
2023-05-13T01:38:10.680Z,20.84
2023-05-13T01:39:10.474Z,20.83
2023-05-13T01:40:24.352Z,20.85
2023-05-13T01:41:11.449Z,20.81
2023-05-13T01:42:10.495Z,20.83
2023-05-13T01:43:10.425Z,20.81
2023-05-13T01:44:10.466Z,20.80
2023-05-13T01:45:10.439Z,20.81
2023-05-13T01:46:10.506Z,20.80
2023-05-13T01:47:10.439Z,20.80
2023-05-13T01:48:10.434Z,20.83
2023-05-13T01:49:10.403Z,20.80
2023-05-13T01:50:10.420Z,20.80
2023-05-13T01:51:10.405Z,20.81
2023-05-13T01:52:10.394Z,20.81
2023-05-13T01:53:10.411Z,20.81
2023-05-13T01:54:10.343Z,20.78
2023-05-13T01:55:11.167Z,20.80
2023-05-13T01:56:10.335Z,20.80
2023-05-13T01:57:10.368Z,20.80
2023-05-13T01:58:10.368Z,20.80
2023-05-13T01:59:10.362Z,20.81
2023-05-13T02:00:10.346Z,20.80
2023-05-13T02:01:10.314Z,20.77
2023-05-13T02:02:10.434Z,20.80
2023-05-13T02:03:10.436Z,20.75
2023-05-13T02:04:10.330Z,20.80
2023-05-13T02:05:10.374Z,20.77
2023-05-13T02:06:10.413Z,20.77
2023-05-13T02:07:10.423Z,20.80
2023-05-13T02:08:10.430Z,20.77
2023-05-13T02:09:10.492Z,20.81
2023-05-13T02:10:10.496Z,20.81
2023-05-13T02:11:10.512Z,20.78
2023-05-13T02:12:10.556Z,20.78
2023-05-13T02:13:10.589Z,20.80
2023-05-13T02:14:10.571Z,20.78
2023-05-13T02:15:10.612Z,20.75
2023-05-13T02:16:10.729Z,20.77
2023-05-13T02:17:10.661Z,20.78
2023-05-13T02:18:10.719Z,20.80
2023-05-13T02:19:10.819Z,20.77
2023-05-13T02:20:10.757Z,20.77
2023-05-13T02:21:10.785Z,20.80
2023-05-13T02:22:10.797Z,20.75
2023-05-13T02:23:10.820Z,20.77
2023-05-13T02:24:10.831Z,20.75
2023-05-13T02:25:10.852Z,20.80
2023-05-13T02:26:10.900Z,20.77
2023-05-13T02:27:10.917Z,20.75
2023-05-13T02:28:11.176Z,20.77
2023-05-13T02:29:10.970Z,20.73
2023-05-13T02:30:11.005Z,20.77
2023-05-13T02:31:11.042Z,20.77
2023-05-13T02:32:11.084Z,20.73
2023-05-13T02:33:11.161Z,20.78
2023-05-13T02:34:11.104Z,20.75
2023-05-13T02:35:11.124Z,20.74
2023-05-13T02:36:11.149Z,20.75
2023-05-13T02:37:11.185Z,20.74
2023-05-13T02:38:11.234Z,20.77
2023-05-13T02:39:11.214Z,20.74
2023-05-13T02:40:11.268Z,20.77
2023-05-13T02:41:11.289Z,20.75
2023-05-13T02:42:11.325Z,20.78
2023-05-13T02:43:11.352Z,20.75
2023-05-13T02:44:11.372Z,20.75
2023-05-13T02:45:11.399Z,20.77
2023-05-13T02:46:11.453Z,20.74
2023-05-13T02:47:11.462Z,20.73
2023-05-13T02:48:11.684Z,20.75
2023-05-13T02:49:11.518Z,20.75
2023-05-13T02:50:11.511Z,20.71
2023-05-13T02:51:11.541Z,20.75
2023-05-13T02:52:11.563Z,20.75
2023-05-13T02:53:11.610Z,20.70
2023-05-13T02:54:11.602Z,20.70
2023-05-13T02:55:11.709Z,20.74
2023-05-13T02:56:11.697Z,20.73
2023-05-13T02:57:11.698Z,20.71
2023-05-13T02:58:12.211Z,20.71
2023-05-13T02:59:11.791Z,20.73
2023-05-13T03:00:11.791Z,20.73
2023-05-13T03:01:11.914Z,20.73
2023-05-13T03:02:11.867Z,20.73
2023-05-13T03:03:11.945Z,20.73
2023-05-13T03:04:11.935Z,20.71
2023-05-13T03:05:11.951Z,20.73
2023-05-13T03:06:12.004Z,20.74
2023-05-13T03:07:11.996Z,20.67
2023-05-13T03:08:12.182Z,20.71
2023-05-13T03:09:12.072Z,20.73
2023-05-13T03:10:12.054Z,20.75
2023-05-13T03:11:12.129Z,20.71
2023-05-13T03:12:12.156Z,20.77
2023-05-13T03:13:12.173Z,20.71
2023-05-13T03:14:12.181Z,20.68
2023-05-13T03:15:12.207Z,20.71
2023-05-13T03:16:12.264Z,20.70
2023-05-13T03:17:12.261Z,20.71
2023-05-13T03:18:12.305Z,20.71
2023-05-13T03:19:12.374Z,20.71
2023-05-13T03:20:12.350Z,20.73
2023-05-13T03:21:12.372Z,20.73
2023-05-13T03:22:12.373Z,20.73
2023-05-13T03:23:12.420Z,20.71
2023-05-13T03:24:12.468Z,20.71
2023-05-13T03:25:12.465Z,20.68
2023-05-13T03:26:12.560Z,20.70
2023-05-13T03:27:12.572Z,20.71
2023-05-13T03:28:12.731Z,20.70
2023-05-13T03:29:12.633Z,20.68
2023-05-13T03:30:12.654Z,20.70
2023-05-13T03:31:12.724Z,20.70
2023-05-13T03:32:12.726Z,20.71
2023-05-13T03:33:13.215Z,20.70
2023-05-13T03:34:12.781Z,20.70
2023-05-13T03:35:12.836Z,20.73
2023-05-13T03:36:12.852Z,20.71
2023-05-13T03:37:12.882Z,20.71
2023-05-13T03:38:13.208Z,20.71
2023-05-13T03:39:12.979Z,20.70
2023-05-13T03:40:13.017Z,20.71
2023-05-13T03:41:13.021Z,20.67
2023-05-13T03:42:13.066Z,20.71
2023-05-13T03:43:13.131Z,20.68
2023-05-13T03:44:13.184Z,20.71
2023-05-13T03:45:13.174Z,20.70
2023-05-13T03:46:13.240Z,20.70
2023-05-13T03:47:13.229Z,20.70
2023-05-13T03:48:13.293Z,20.71
2023-05-13T03:49:13.290Z,20.71
2023-05-13T03:50:13.348Z,20.70
2023-05-13T03:51:13.351Z,20.70
2023-05-13T03:52:13.405Z,20.70
2023-05-13T03:53:13.717Z,20.68
2023-05-13T03:54:13.464Z,20.68
2023-05-13T03:55:13.519Z,20.70
2023-05-13T03:56:13.545Z,20.70
2023-05-13T03:57:13.586Z,20.70
2023-05-13T03:58:13.625Z,20.68
2023-05-13T03:59:13.654Z,20.67
2023-05-13T04:00:13.697Z,20.71
2023-05-13T04:01:13.716Z,20.70
2023-05-13T04:02:13.782Z,20.68
2023-05-13T04:03:13.847Z,20.68
2023-05-13T04:04:13.843Z,20.70
2023-05-13T04:05:14.064Z,20.67
2023-05-13T04:06:13.880Z,20.68
2023-05-13T04:07:13.927Z,20.67
2023-05-13T04:08:13.963Z,20.68
2023-05-13T04:09:13.990Z,20.68
2023-05-13T04:10:15.671Z,20.67
2023-05-13T04:11:14.044Z,20.66
2023-05-13T04:12:14.058Z,20.66
2023-05-13T04:13:14.133Z,20.68
2023-05-13T04:14:14.156Z,20.68
2023-05-13T04:15:14.197Z,20.68
2023-05-13T04:16:14.235Z,20.70
2023-05-13T04:17:14.256Z,20.70
2023-05-13T04:18:14.308Z,20.68
2023-05-13T04:19:14.813Z,20.71
2023-05-13T04:20:14.373Z,20.67
2023-05-13T04:21:14.360Z,20.70
2023-05-13T04:22:14.418Z,20.67
2023-05-13T04:23:14.443Z,20.68
2023-05-13T04:24:14.715Z,20.68
2023-05-13T04:25:14.531Z,20.67
2023-05-13T04:26:14.564Z,20.68
2023-05-13T04:27:14.612Z,20.70
2023-05-13T04:28:14.635Z,20.68
2023-05-13T04:29:14.656Z,20.66
2023-05-13T04:30:14.694Z,20.70
2023-05-13T04:31:14.741Z,20.68
2023-05-13T04:32:14.819Z,20.67
2023-05-13T04:33:14.845Z,20.67
2023-05-13T04:34:14.867Z,20.66
2023-05-13T04:35:14.881Z,20.67
2023-05-13T04:36:15.336Z,20.66
2023-05-13T04:37:14.951Z,20.70
2023-05-13T04:38:15.011Z,20.67
2023-05-13T04:39:15.240Z,20.66
2023-05-13T04:40:15.082Z,20.66
2023-05-13T04:41:15.125Z,20.68
2023-05-13T04:42:15.164Z,20.66
2023-05-13T04:43:15.187Z,20.67
2023-05-13T04:44:15.253Z,20.63
2023-05-13T04:45:15.265Z,20.63
2023-05-13T04:46:15.312Z,20.64
2023-05-13T04:47:15.325Z,20.63
2023-05-13T04:48:15.375Z,20.66
2023-05-13T04:49:15.468Z,20.63
2023-05-13T04:50:16.247Z,20.67
2023-05-13T04:51:15.493Z,20.64
2023-05-13T04:52:15.520Z,20.67
2023-05-13T04:53:15.570Z,20.62
2023-05-13T04:54:15.608Z,20.63
2023-05-13T04:55:15.656Z,20.66
2023-05-13T04:56:15.664Z,20.64
2023-05-13T04:57:15.709Z,20.64
2023-05-13T04:58:15.764Z,20.64
2023-05-13T04:59:15.796Z,20.63
2023-05-13T05:00:15.823Z,20.64
2023-05-13T05:01:15.931Z,20.60
2023-05-13T05:02:15.878Z,20.63
2023-05-13T05:03:15.929Z,20.62
2023-05-13T05:04:16.007Z,20.62
2023-05-13T05:05:18.186Z,20.64
2023-05-13T05:06:16.140Z,20.64
2023-05-13T05:07:16.149Z,20.64
2023-05-13T05:08:16.195Z,20.62
2023-05-13T05:09:16.268Z,20.64
2023-05-13T05:10:16.259Z,20.64
2023-05-13T05:11:16.322Z,20.66
2023-05-13T05:12:16.320Z,20.63
2023-05-13T05:13:16.418Z,20.66
2023-05-13T05:14:16.465Z,20.64
2023-05-13T05:15:16.564Z,20.64
2023-05-13T05:16:16.504Z,20.63
2023-05-13T05:17:16.675Z,20.67
2023-05-13T05:18:16.749Z,20.66
2023-05-13T05:19:16.671Z,20.67
2023-05-13T05:20:16.660Z,20.67
2023-05-13T05:21:16.697Z,20.67
2023-05-13T05:22:16.737Z,20.63
2023-05-13T05:23:16.786Z,20.66
2023-05-13T05:24:16.813Z,20.67
2023-05-13T05:25:16.851Z,20.63
2023-05-13T05:26:16.880Z,20.66
2023-05-13T05:27:16.930Z,20.64
2023-05-13T05:28:16.983Z,20.67
2023-05-13T05:29:16.990Z,20.63
2023-05-13T05:30:17.072Z,20.66
2023-05-13T05:31:17.152Z,20.66
2023-05-13T05:32:17.105Z,20.66
2023-05-13T05:33:17.136Z,20.66
2023-05-13T05:34:17.255Z,20.64
2023-05-13T05:35:17.209Z,20.63
2023-05-13T05:36:17.259Z,20.67
2023-05-13T05:37:17.325Z,20.64
2023-05-13T05:38:17.348Z,20.63
2023-05-13T05:39:17.786Z,20.64
2023-05-13T05:40:17.470Z,20.64
2023-05-13T05:41:17.479Z,20.64
2023-05-13T05:42:17.524Z,20.66
2023-05-13T05:43:17.592Z,20.64
2023-05-13T05:44:17.803Z,20.68
2023-05-13T05:45:17.637Z,20.63
2023-05-13T05:46:17.740Z,20.64
2023-05-13T05:47:17.719Z,20.63
2023-05-13T05:48:17.750Z,20.66
2023-05-13T05:49:17.851Z,20.66
2023-05-13T05:50:17.860Z,20.64
2023-05-13T05:51:17.889Z,20.66
2023-05-13T05:52:17.931Z,20.64
2023-05-13T05:53:18.017Z,20.64
2023-05-13T05:54:18.045Z,20.64
2023-05-13T05:55:18.086Z,20.66
2023-05-13T05:56:18.103Z,20.66
2023-05-13T05:57:18.142Z,20.67
2023-05-13T05:58:18.201Z,20.63
2023-05-13T05:59:18.288Z,20.64
2023-05-13T06:00:18.252Z,20.64
2023-05-13T06:01:18.295Z,20.66
2023-05-13T06:02:18.343Z,20.66
2023-05-13T06:03:18.475Z,20.64
2023-05-13T06:04:18.463Z,20.64
2023-05-13T06:05:18.426Z,20.67
2023-05-13T06:06:18.464Z,20.62
2023-05-13T06:07:18.587Z,20.63
2023-05-13T06:08:18.552Z,20.64
2023-05-13T06:09:18.617Z,20.62
2023-05-13T06:10:18.602Z,20.64
2023-05-13T06:11:18.669Z,20.64
2023-05-13T06:12:18.684Z,20.64
2023-05-13T06:13:18.731Z,20.66
2023-05-13T06:14:18.764Z,20.63
2023-05-13T06:15:18.840Z,20.63
2023-05-13T06:16:18.925Z,20.63
2023-05-13T06:17:18.886Z,20.63
2023-05-13T06:18:18.921Z,20.67
2023-05-13T06:19:19.041Z,20.68
2023-05-13T06:20:19.219Z,20.63
2023-05-13T06:21:19.053Z,20.66
2023-05-13T06:22:19.138Z,20.63
2023-05-13T06:23:19.142Z,20.64
2023-05-13T06:24:19.181Z,20.67
2023-05-13T06:25:19.222Z,20.63
2023-05-13T06:26:19.268Z,20.66
2023-05-13T06:27:19.324Z,20.66
2023-05-13T06:28:19.378Z,20.68
2023-05-13T06:29:19.411Z,20.64
2023-05-13T06:30:19.532Z,20.66
2023-05-13T06:31:19.510Z,20.64
2023-05-13T06:32:19.496Z,20.67
2023-05-13T06:33:19.610Z,20.64
2023-05-13T06:34:19.601Z,20.66
2023-05-13T06:35:19.651Z,20.62
2023-05-13T06:36:19.703Z,20.64
2023-05-13T06:37:19.743Z,20.62
2023-05-13T06:38:19.827Z,20.63
2023-05-13T06:39:19.833Z,20.67
2023-05-13T06:40:20.240Z,20.64
2023-05-13T06:41:20.780Z,20.66
2023-05-13T06:42:19.947Z,20.64
2023-05-13T06:43:19.996Z,20.63
2023-05-13T06:44:20.316Z,20.64
2023-05-13T06:45:20.069Z,20.64
2023-05-13T06:46:20.157Z,20.63
2023-05-13T06:47:21.822Z,20.64
2023-05-13T06:48:20.124Z,20.64
2023-05-13T06:49:20.301Z,20.63
2023-05-13T06:50:20.310Z,20.63
2023-05-13T06:51:20.101Z,20.64
2023-05-13T06:52:20.113Z,20.63
2023-05-13T06:53:20.125Z,20.64
2023-05-13T06:54:20.344Z,20.62
2023-05-13T06:55:20.074Z,20.67
2023-05-13T06:56:20.084Z,20.63
2023-05-13T06:57:21.910Z,20.62
2023-05-13T06:58:20.094Z,20.64
2023-05-13T06:59:20.052Z,20.62
2023-05-13T07:00:20.239Z,20.62
2023-05-13T07:01:20.064Z,20.64
2023-05-13T07:02:20.030Z,20.64
2023-05-13T07:03:20.042Z,20.60
2023-05-13T07:04:20.363Z,20.63
2023-05-13T07:05:20.009Z,20.63
2023-05-13T07:06:20.002Z,20.64
2023-05-13T07:07:19.973Z,20.64
2023-05-13T07:08:19.996Z,20.60
2023-05-13T07:09:20.337Z,20.64
2023-05-13T07:10:20.259Z,20.63
2023-05-13T07:11:19.953Z,20.64
2023-05-13T07:12:19.942Z,20.63
2023-05-13T07:13:19.950Z,20.63
2023-05-13T07:14:19.960Z,20.62
2023-05-13T07:15:20.084Z,20.63
2023-05-13T07:16:19.933Z,20.63
2023-05-13T07:17:19.947Z,20.62
2023-05-13T07:18:19.967Z,20.63
2023-05-13T07:19:20.369Z,20.64
2023-05-13T07:20:20.198Z,20.62
2023-05-13T07:21:19.918Z,20.64
2023-05-13T07:22:19.884Z,20.64
2023-05-13T07:23:19.885Z,20.64
2023-05-13T07:24:20.329Z,20.67
2023-05-13T07:25:19.862Z,20.63
2023-05-13T07:26:19.869Z,20.63
2023-05-13T07:27:19.856Z,20.63
2023-05-13T07:28:19.857Z,20.66
2023-05-13T07:29:19.828Z,20.64
2023-05-13T07:30:19.871Z,20.62
2023-05-13T07:31:19.939Z,20.63
2023-05-13T07:32:19.853Z,20.66
2023-05-13T07:33:19.806Z,20.63
2023-05-13T07:34:19.817Z,20.64
2023-05-13T07:35:19.907Z,20.63
2023-05-13T07:36:19.774Z,20.66
2023-05-13T07:37:19.789Z,20.66
2023-05-13T07:38:19.785Z,20.67
2023-05-13T07:39:19.751Z,20.67
2023-05-13T07:40:19.839Z,20.66
2023-05-13T07:41:19.788Z,20.68
2023-05-13T07:42:19.750Z,20.67
2023-05-13T07:43:19.746Z,20.68
2023-05-13T07:44:19.723Z,20.64
2023-05-13T07:45:19.899Z,20.67
2023-05-13T07:46:19.877Z,20.66
2023-05-13T07:47:19.922Z,20.66
2023-05-13T07:48:19.896Z,20.67
2023-05-13T07:49:20.382Z,20.68
2023-05-13T07:50:20.022Z,20.67
2023-05-13T07:51:20.021Z,20.64
2023-05-13T07:52:20.058Z,20.68
2023-05-13T07:53:20.130Z,20.67
2023-05-13T07:54:20.334Z,20.70
2023-05-13T07:55:20.304Z,20.68
2023-05-13T07:56:20.166Z,20.67
2023-05-13T07:57:20.225Z,20.67
2023-05-13T07:58:20.259Z,20.70
2023-05-13T07:59:20.272Z,20.66
2023-05-13T08:00:20.309Z,20.70
2023-05-13T08:01:20.347Z,20.70
2023-05-13T08:02:20.397Z,20.67
2023-05-13T08:03:20.531Z,20.66
2023-05-13T08:04:20.593Z,20.66
2023-05-13T08:05:20.809Z,20.68
2023-05-13T08:06:20.573Z,20.68
2023-05-13T08:07:20.590Z,20.70
2023-05-13T08:08:20.604Z,20.70
2023-05-13T08:09:20.868Z,20.70
2023-05-13T08:10:20.699Z,20.68
2023-05-13T08:11:20.762Z,20.70
2023-05-13T08:12:20.808Z,20.70
2023-05-13T08:13:20.823Z,20.68
2023-05-13T08:14:21.353Z,20.70
2023-05-13T08:15:21.126Z,20.70
2023-05-13T08:16:20.978Z,20.67
2023-05-13T08:17:21.026Z,20.68
2023-05-13T08:18:21.037Z,20.71
2023-05-13T08:19:21.219Z,20.67
2023-05-13T08:20:21.114Z,20.71
2023-05-13T08:21:21.155Z,20.68
2023-05-13T08:22:21.194Z,20.71
2023-05-13T08:23:23.185Z,20.70
2023-05-13T08:24:22.391Z,20.71
2023-05-13T08:25:21.272Z,20.73
2023-05-13T08:26:21.179Z,20.71
2023-05-13T08:27:21.197Z,20.71
2023-05-13T08:28:21.183Z,20.70
2023-05-13T08:29:21.178Z,20.73
2023-05-13T08:30:21.367Z,20.68
2023-05-13T08:31:21.160Z,20.71
2023-05-13T08:32:21.194Z,20.74
2023-05-13T08:33:21.170Z,20.71
2023-05-13T08:34:21.187Z,20.73
2023-05-13T08:35:21.627Z,20.70
2023-05-13T08:36:21.117Z,20.71
2023-05-13T08:37:21.144Z,20.71
2023-05-13T08:38:21.828Z,20.74
2023-05-13T08:39:21.262Z,20.73
2023-05-13T08:40:21.360Z,20.75
2023-05-13T08:41:22.126Z,20.75
2023-05-13T08:42:21.198Z,20.74
2023-05-13T08:43:21.262Z,20.74
2023-05-13T08:44:21.293Z,20.73
2023-05-13T08:45:21.458Z,20.71
2023-05-13T08:46:21.360Z,20.74
2023-05-13T08:47:21.436Z,20.71
2023-05-13T08:48:21.380Z,20.74
2023-05-13T08:49:21.435Z,20.73
2023-05-13T08:50:21.931Z,20.73
2023-05-13T08:51:21.524Z,20.74
2023-05-13T08:52:21.532Z,20.75
2023-05-13T08:53:21.596Z,20.78
2023-05-13T08:54:23.868Z,20.77
2023-05-13T08:55:21.788Z,20.77
2023-05-13T08:56:21.699Z,20.80
2023-05-13T08:57:21.744Z,20.80
2023-05-13T08:58:21.770Z,20.78
2023-05-13T08:59:21.776Z,20.81
2023-05-13T09:00:22.001Z,20.81
2023-05-13T09:01:21.894Z,20.81
2023-05-13T09:02:21.862Z,20.80
2023-05-13T09:03:21.904Z,20.84
2023-05-13T09:04:21.974Z,20.83
2023-05-13T09:05:22.371Z,20.81
2023-05-13T09:06:22.019Z,20.81
2023-05-13T09:07:22.077Z,20.84
2023-05-13T09:08:22.070Z,20.81
2023-05-13T09:09:22.118Z,20.83
2023-05-13T09:10:22.179Z,20.83
2023-05-13T09:11:22.202Z,20.83
2023-05-13T09:12:22.210Z,20.83
2023-05-13T09:13:22.252Z,20.85
2023-05-13T09:14:22.285Z,20.84
2023-05-13T09:15:22.454Z,20.84
2023-05-13T09:16:22.329Z,20.84
2023-05-13T09:17:22.386Z,20.85
2023-05-13T09:18:22.548Z,20.84
2023-05-13T09:19:22.515Z,20.85
2023-05-13T09:20:22.916Z,20.83
2023-05-13T09:21:22.455Z,20.84
2023-05-13T09:22:22.511Z,20.85
2023-05-13T09:23:22.517Z,20.84
2023-05-13T09:24:22.538Z,20.87
2023-05-13T09:25:23.127Z,20.85
2023-05-13T09:26:22.612Z,20.88
2023-05-13T09:27:22.629Z,20.87
2023-05-13T09:28:22.655Z,20.88
2023-05-13T09:29:22.664Z,20.87
2023-05-13T09:30:22.890Z,20.87
2023-05-13T09:31:22.800Z,20.88
2023-05-13T09:32:22.758Z,20.90
2023-05-13T09:33:22.817Z,20.87
2023-05-13T09:34:22.832Z,20.90
2023-05-13T09:35:23.047Z,20.88
2023-05-13T09:36:22.836Z,20.88
2023-05-13T09:37:22.878Z,20.91
2023-05-13T09:38:22.903Z,20.91
2023-05-13T09:39:22.952Z,20.91
2023-05-13T09:40:23.155Z,20.91
2023-05-13T09:41:22.985Z,20.91
2023-05-13T09:42:22.998Z,20.91
2023-05-13T09:43:23.049Z,20.92
2023-05-13T09:44:23.055Z,20.91
2023-05-13T09:45:23.199Z,20.92
2023-05-13T09:46:23.114Z,20.94
2023-05-13T09:47:23.063Z,20.92
2023-05-13T09:48:23.106Z,20.92
2023-05-13T09:49:23.104Z,20.94
2023-05-13T09:50:23.362Z,20.94
2023-05-13T09:51:23.124Z,20.92
2023-05-13T09:52:23.182Z,20.94
2023-05-13T09:53:23.182Z,20.95
2023-05-13T09:54:23.205Z,20.94
2023-05-13T09:55:23.220Z,20.94
2023-05-13T09:56:23.238Z,20.92
2023-05-13T09:57:23.242Z,20.94
2023-05-13T09:58:23.271Z,20.94
2023-05-13T09:59:23.357Z,20.92
2023-05-13T10:00:32.255Z,20.92
2023-05-13T10:01:24.297Z,20.95
2023-05-13T10:02:23.311Z,20.94
2023-05-13T10:03:23.332Z,20.98
2023-05-13T10:04:23.300Z,20.95
2023-05-13T10:05:23.266Z,20.94
2023-05-13T10:06:23.251Z,20.95
2023-05-13T10:07:23.236Z,20.92
2023-05-13T10:08:23.239Z,20.95
2023-05-13T10:09:23.215Z,20.98
2023-05-13T10:10:23.683Z,20.95
2023-05-13T10:11:23.228Z,20.98
2023-05-13T10:12:23.241Z,20.97
2023-05-13T10:13:23.214Z,20.97
2023-05-13T10:14:23.205Z,20.97
2023-05-13T10:15:23.184Z,20.97
2023-05-13T10:16:23.222Z,20.98
2023-05-13T10:17:23.171Z,20.98
2023-05-13T10:18:23.238Z,21.01
2023-05-13T10:19:23.157Z,20.99
2023-05-13T10:20:23.681Z,20.98
2023-05-13T10:21:23.133Z,20.98
2023-05-13T10:22:23.158Z,21.01
2023-05-13T10:23:23.109Z,21.01
2023-05-13T10:24:23.127Z,20.99
2023-05-13T10:25:23.142Z,21.02
2023-05-13T10:26:23.130Z,20.99
2023-05-13T10:27:23.096Z,21.01
2023-05-13T10:28:23.137Z,20.99
2023-05-13T10:29:23.099Z,21.02
2023-05-13T10:30:23.605Z,21.02
2023-05-13T10:31:23.125Z,21.01
2023-05-13T10:32:23.113Z,21.03
2023-05-13T10:33:23.121Z,21.02
2023-05-13T10:34:23.147Z,21.02
2023-05-13T10:35:23.419Z,21.02
2023-05-13T10:36:23.135Z,21.01
2023-05-13T10:37:23.203Z,21.02
2023-05-13T10:38:23.213Z,21.02
2023-05-13T10:39:23.172Z,21.03
2023-05-13T10:40:23.705Z,21.02
2023-05-13T10:41:23.220Z,21.02
2023-05-13T10:42:23.280Z,21.02
2023-05-13T10:43:23.390Z,21.03
2023-05-13T10:44:23.291Z,21.03
2023-05-13T10:45:23.415Z,21.03
2023-05-13T10:46:23.374Z,21.03
2023-05-13T10:47:23.510Z,21.02
2023-05-13T10:48:24.041Z,21.05
2023-05-13T10:49:23.419Z,21.03
2023-05-13T10:50:24.034Z,21.05
2023-05-13T10:51:23.506Z,21.03
2023-05-13T10:52:23.467Z,21.05
2023-05-13T10:53:23.491Z,21.05
2023-05-13T10:54:23.542Z,21.05
2023-05-13T10:55:23.932Z,21.05
2023-05-13T10:56:23.531Z,21.05
2023-05-13T10:57:23.577Z,21.06
2023-05-13T10:58:23.574Z,21.05
2023-05-13T10:59:23.595Z,21.05
2023-05-13T11:00:24.028Z,21.05
2023-05-13T11:01:23.632Z,21.06
2023-05-13T11:02:23.723Z,21.06
2023-05-13T11:03:24.016Z,21.05
2023-05-13T11:04:23.662Z,21.06
2023-05-13T11:05:23.680Z,21.03
2023-05-13T11:06:23.849Z,21.08
2023-05-13T11:07:23.670Z,21.06
2023-05-13T11:08:23.719Z,21.06
2023-05-13T11:09:24.444Z,21.09
2023-05-13T11:10:23.960Z,21.08
2023-05-13T11:11:23.746Z,21.06
2023-05-13T11:12:23.743Z,21.10
2023-05-13T11:13:23.758Z,21.06
2023-05-13T11:14:23.848Z,21.08
2023-05-13T11:15:23.939Z,21.06
2023-05-13T11:16:23.844Z,21.08
2023-05-13T11:17:23.805Z,21.06
2023-05-13T11:18:23.887Z,21.08
2023-05-13T11:19:23.861Z,21.08
2023-05-13T11:20:24.039Z,21.06
2023-05-13T11:21:23.857Z,21.05
2023-05-13T11:22:23.984Z,21.08
2023-05-13T11:23:23.892Z,21.06
2023-05-13T11:24:23.905Z,21.08
2023-05-13T11:25:23.950Z,21.09
2023-05-13T11:26:23.924Z,21.08
2023-05-13T11:27:23.928Z,21.09
2023-05-13T11:28:23.962Z,21.08
2023-05-13T11:29:23.947Z,21.06
2023-05-13T11:30:24.270Z,21.09
2023-05-13T11:31:24.012Z,21.06
2023-05-13T11:32:24.005Z,21.09
2023-05-13T11:33:24.000Z,21.08
2023-05-13T11:34:24.027Z,21.06
2023-05-13T11:35:24.477Z,21.08
2023-05-13T11:36:24.010Z,21.08
2023-05-13T11:37:24.066Z,21.09
2023-05-13T11:38:24.079Z,21.12
2023-05-13T11:39:24.082Z,21.09
2023-05-13T11:40:24.218Z,21.08
2023-05-13T11:41:24.099Z,21.06
2023-05-13T11:42:24.106Z,21.09
2023-05-13T11:43:24.089Z,21.08
2023-05-13T11:44:24.112Z,21.08
2023-05-13T11:45:24.707Z,21.10
2023-05-13T11:46:24.164Z,21.08
2023-05-13T11:47:24.173Z,21.09
2023-05-13T11:48:24.166Z,21.08
2023-05-13T11:49:24.156Z,21.06
2023-05-13T11:50:24.183Z,21.06
2023-05-13T11:51:24.156Z,21.09
2023-05-13T11:52:24.163Z,21.10
2023-05-13T11:53:24.173Z,21.10
2023-05-13T11:54:24.187Z,21.09
2023-05-13T11:55:24.177Z,21.09
2023-05-13T11:56:24.459Z,21.12
2023-05-13T11:57:24.235Z,21.12
2023-05-13T11:58:24.261Z,21.13
2023-05-13T11:59:24.275Z,21.13
2023-05-13T12:00:24.255Z,21.13
2023-05-13T12:01:24.259Z,21.15
2023-05-13T12:02:24.359Z,21.15
2023-05-13T12:03:24.318Z,21.15
2023-05-13T12:04:24.235Z,21.16
2023-05-13T12:05:24.593Z,21.16
2023-05-13T12:06:24.251Z,21.15
2023-05-13T12:07:24.258Z,21.18
2023-05-13T12:08:24.279Z,21.16
2023-05-13T12:09:24.321Z,21.18
2023-05-13T12:10:24.287Z,21.18
2023-05-13T12:11:24.480Z,21.19
2023-05-13T12:12:24.290Z,21.21
2023-05-13T12:13:24.289Z,21.21
2023-05-13T12:14:26.382Z,21.21
2023-05-13T12:15:24.571Z,21.19
2023-05-13T12:16:24.514Z,21.22
2023-05-13T12:17:24.292Z,21.19
2023-05-13T12:18:24.267Z,21.19
2023-05-13T12:19:24.246Z,21.22
2023-05-13T12:20:24.261Z,21.19
2023-05-13T12:21:24.243Z,21.22
2023-05-13T12:22:24.238Z,21.19
2023-05-13T12:23:24.215Z,21.22
2023-05-13T12:24:24.221Z,21.22
2023-05-13T12:25:24.197Z,21.23
2023-05-13T12:26:24.181Z,21.23
2023-05-13T12:27:24.215Z,21.23
2023-05-13T12:28:24.205Z,21.21
2023-05-13T12:29:24.182Z,21.23
2023-05-13T12:30:24.152Z,21.21
2023-05-13T12:31:24.221Z,21.25
2023-05-13T12:32:24.146Z,21.25
2023-05-13T12:33:24.125Z,21.25
2023-05-13T12:34:24.136Z,21.25
2023-05-13T12:35:24.189Z,21.23
2023-05-13T12:36:24.514Z,21.23
2023-05-13T12:37:24.111Z,21.23
2023-05-13T12:38:24.161Z,21.23
2023-05-13T12:39:24.116Z,21.25
2023-05-13T12:40:24.084Z,21.26
2023-05-13T12:41:24.534Z,21.23
2023-05-13T12:42:24.074Z,21.25
2023-05-13T12:43:24.049Z,21.25
2023-05-13T12:44:24.082Z,21.23
2023-05-13T12:45:24.180Z,21.26
2023-05-13T12:46:24.571Z,21.25
2023-05-13T12:47:24.105Z,21.25
2023-05-13T12:48:24.057Z,21.26
2023-05-13T12:49:24.066Z,21.25
2023-05-13T12:50:24.036Z,21.27
2023-05-13T12:51:24.498Z,21.26
2023-05-13T12:52:24.002Z,21.26